<?xml version="1.0" encoding="UTF-8" standalone="no" ?>
<gpx xmlns="http://www.topografix.com/GPX/1/1" xmlns:xsi="http://www.w3.org/2001/XMLSchema-instance" xsi:schemaLocation="http://www.topografix.com/GPX/1/1 http://www.topografix.com/GPX/1/1/gpx.xsd" version="1.1" creator="VisuGPX - https://www.visugpx.com">
  <metadata>
    <name>ARQUES LA SEYNE SUR MER 1497 KM</name>
    <desc><![CDATA[Rando de Arques dans le Pas de Calais jusque La Seyne sur Mer dans le Var, 1497 km]]></desc>
  </metadata>
  <trk>
    <name><![CDATA[26 - IS SUR TILLE AHUY 24.7 KM]]></name>
    <extensions>
      <line xmlns="http://www.topografix.com/GPX/gpx_style/0/2">
        <color>0000FF</color>
        <width>4</width>
      </line>
    </extensions>
    <trkseg>
      <trkpt lat="47.524" lon="5.11268">
        <ele>276</ele>
        <time>2021-11-10T14:49:22+01:00</time>
      </trkpt>
      <trkpt lat="47.52356" lon="5.1125">
        <ele>278</ele>
        <time>2021-11-10T14:49:27+01:00</time>
      </trkpt>
      <trkpt lat="47.52273" lon="5.11296">
        <ele>282</ele>
        <time>2021-11-10T14:49:32+01:00</time>
      </trkpt>
      <trkpt lat="47.52225" lon="5.11229">
        <ele>283</ele>
        <time>2021-11-10T14:49:37+01:00</time>
      </trkpt>
      <trkpt lat="47.5219" lon="5.11209">
        <ele>283</ele>
        <time>2021-11-10T14:49:42+01:00</time>
      </trkpt>
      <trkpt lat="47.52139" lon="5.11232">
        <ele>284</ele>
        <time>2021-11-10T14:49:47+01:00</time>
      </trkpt>
      <trkpt lat="47.52082" lon="5.1117">
        <ele>284</ele>
        <time>2021-11-10T14:49:52+01:00</time>
      </trkpt>
      <trkpt lat="47.51987" lon="5.11029">
        <ele>284</ele>
        <time>2021-11-10T14:49:57+01:00</time>
      </trkpt>
      <trkpt lat="47.51953" lon="5.10944">
        <ele>285</ele>
        <time>2021-11-10T14:50:02+01:00</time>
      </trkpt>
      <trkpt lat="47.51457" lon="5.10967">
        <ele>311</ele>
        <time>2021-11-10T14:50:07+01:00</time>
      </trkpt>
      <trkpt lat="47.51314" lon="5.10947">
        <ele>315</ele>
        <time>2021-11-10T14:50:12+01:00</time>
      </trkpt>
      <trkpt lat="47.50692" lon="5.10375">
        <ele>338</ele>
        <time>2021-11-10T14:50:17+01:00</time>
      </trkpt>
      <trkpt lat="47.49825" lon="5.09362">
        <ele>350</ele>
        <time>2021-11-10T14:50:22+01:00</time>
      </trkpt>
      <trkpt lat="47.47975" lon="5.08458">
        <ele>312</ele>
        <time>2021-11-10T14:50:27+01:00</time>
      </trkpt>
      <trkpt lat="47.48018" lon="5.08246">
        <ele>318</ele>
        <time>2021-11-10T14:50:32+01:00</time>
      </trkpt>
      <trkpt lat="47.47771" lon="5.08221">
        <ele>315</ele>
        <time>2021-11-10T14:50:37+01:00</time>
      </trkpt>
      <trkpt lat="47.47035" lon="5.07918">
        <ele>325</ele>
        <time>2021-11-10T14:50:42+01:00</time>
      </trkpt>
      <trkpt lat="47.46575" lon="5.07645">
        <ele>333</ele>
        <time>2021-11-10T14:50:47+01:00</time>
      </trkpt>
      <trkpt lat="47.44901" lon="5.05907">
        <ele>322</ele>
        <time>2021-11-10T14:50:52+01:00</time>
      </trkpt>
      <trkpt lat="47.44679" lon="5.05839">
        <ele>317</ele>
        <time>2021-11-10T14:50:57+01:00</time>
      </trkpt>
      <trkpt lat="47.44323" lon="5.05665">
        <ele>315</ele>
        <time>2021-11-10T14:51:02+01:00</time>
      </trkpt>
      <trkpt lat="47.43453" lon="5.05436">
        <ele>315</ele>
        <time>2021-11-10T14:51:07+01:00</time>
      </trkpt>
      <trkpt lat="47.42955" lon="5.05412">
        <ele>306</ele>
        <time>2021-11-10T14:51:12+01:00</time>
      </trkpt>
      <trkpt lat="47.43038" lon="5.05261">
        <ele>306</ele>
        <time>2021-11-10T14:51:17+01:00</time>
      </trkpt>
      <trkpt lat="47.42592" lon="5.04904">
        <ele>294</ele>
        <time>2021-11-10T14:51:22+01:00</time>
      </trkpt>
      <trkpt lat="47.42499" lon="5.04391">
        <ele>303</ele>
        <time>2021-11-10T14:51:27+01:00</time>
      </trkpt>
      <trkpt lat="47.41737" lon="5.03246">
        <ele>308</ele>
        <time>2021-11-10T14:51:32+01:00</time>
      </trkpt>
      <trkpt lat="47.41173" lon="5.02284">
        <ele>317</ele>
        <time>2021-11-10T14:51:37+01:00</time>
      </trkpt>
      <trkpt lat="47.40947" lon="5.02067">
        <ele>320</ele>
        <time>2021-11-10T14:51:42+01:00</time>
      </trkpt>
      <trkpt lat="47.4087" lon="5.01931">
        <ele>322</ele>
        <time>2021-11-10T14:51:47+01:00</time>
      </trkpt>
      <trkpt lat="47.40699" lon="5.01888">
        <ele>313</ele>
        <time>2021-11-10T14:51:52+01:00</time>
      </trkpt>
      <trkpt lat="47.4061" lon="5.01739">
        <ele>308</ele>
        <time>2021-11-10T14:51:57+01:00</time>
      </trkpt>
      <trkpt lat="47.40445" lon="5.01835">
        <ele>298</ele>
        <time>2021-11-10T14:52:02+01:00</time>
      </trkpt>
      <trkpt lat="47.40409" lon="5.01785">
        <ele>295</ele>
        <time>2021-11-10T14:52:07+01:00</time>
      </trkpt>
      <trkpt lat="47.40356" lon="5.0181">
        <ele>294</ele>
        <time>2021-11-10T14:52:12+01:00</time>
      </trkpt>
      <trkpt lat="47.40342" lon="5.01763">
        <ele>293</ele>
        <time>2021-11-10T14:52:17+01:00</time>
      </trkpt>
      <trkpt lat="47.40286" lon="5.01756">
        <ele>292</ele>
        <time>2021-11-10T14:52:22+01:00</time>
      </trkpt>
      <trkpt lat="47.40197" lon="5.01639">
        <ele>292</ele>
        <time>2021-11-10T14:52:27+01:00</time>
      </trkpt>
      <trkpt lat="47.40112" lon="5.01614">
        <ele>294</ele>
        <time>2021-11-10T14:52:32+01:00</time>
      </trkpt>
      <trkpt lat="47.39883" lon="5.01853">
        <ele>292</ele>
        <time>2021-11-10T14:52:37+01:00</time>
      </trkpt>
      <trkpt lat="47.39734" lon="5.02002">
        <ele>292</ele>
        <time>2021-11-10T14:52:42+01:00</time>
      </trkpt>
      <trkpt lat="47.39594" lon="5.02002">
        <ele>289</ele>
        <time>2021-11-10T14:52:47+01:00</time>
      </trkpt>
      <trkpt lat="47.39502" lon="5.02077">
        <ele>288</ele>
        <time>2021-11-10T14:52:52+01:00</time>
      </trkpt>
      <trkpt lat="47.39475" lon="5.02598">
        <ele>284</ele>
        <time>2021-11-10T14:52:57+01:00</time>
      </trkpt>
      <trkpt lat="47.39379" lon="5.02694">
        <ele>284</ele>
        <time>2021-11-10T14:53:02+01:00</time>
      </trkpt>
      <trkpt lat="47.39263" lon="5.0274">
        <ele>285</ele>
        <time>2021-11-10T14:53:07+01:00</time>
      </trkpt>
      <trkpt lat="47.38756" lon="5.0258">
        <ele>283</ele>
        <time>2021-11-10T14:53:12+01:00</time>
      </trkpt>
      <trkpt lat="47.38461" lon="5.02569">
        <ele>276</ele>
        <time>2021-11-10T14:53:17+01:00</time>
      </trkpt>
      <trkpt lat="47.38297" lon="5.02512">
        <ele>277</ele>
        <time>2021-11-10T14:53:22+01:00</time>
      </trkpt>
      <trkpt lat="47.38326" lon="5.02455">
        <ele>277</ele>
        <time>2021-11-10T14:53:27+01:00</time>
      </trkpt>
      <trkpt lat="47.38372" lon="5.02412">
        <ele>277</ele>
        <time>2021-11-10T14:53:32+01:00</time>
      </trkpt>
      <trkpt lat="47.38312" lon="5.0222">
        <ele>285</ele>
        <time>2021-11-10T14:53:37+01:00</time>
      </trkpt>
      <trkpt lat="47.38119" lon="5.02027">
        <ele>295</ele>
        <time>2021-11-10T14:53:42+01:00</time>
      </trkpt>
      <trkpt lat="47.37897" lon="5.01985">
        <ele>302</ele>
        <time>2021-11-10T14:53:47+01:00</time>
      </trkpt>
      <trkpt lat="47.37795" lon="5.01903">
        <ele>307</ele>
        <time>2021-11-10T14:53:52+01:00</time>
      </trkpt>
      <trkpt lat="47.37686" lon="5.01903">
        <ele>306</ele>
        <time>2021-11-10T14:53:57+01:00</time>
      </trkpt>
      <trkpt lat="47.37602" lon="5.01888">
        <ele>308</ele>
        <time>2021-11-10T14:54:02+01:00</time>
      </trkpt>
      <trkpt lat="47.3753" lon="5.01945">
        <ele>306</ele>
        <time>2021-11-10T14:54:07+01:00</time>
      </trkpt>
      <trkpt lat="47.37418" lon="5.01992">
        <ele>306</ele>
        <time>2021-11-10T14:54:12+01:00</time>
      </trkpt>
      <trkpt lat="47.37187" lon="5.01992">
        <ele>304</ele>
        <time>2021-11-10T14:54:17+01:00</time>
      </trkpt>
      <trkpt lat="47.36933" lon="5.02074">
        <ele>282</ele>
        <time>2021-11-10T14:54:22+01:00</time>
      </trkpt>
      <trkpt lat="47.36887" lon="5.0233">
        <ele>277</ele>
        <time>2021-11-10T14:54:27+01:00</time>
      </trkpt>
      <trkpt lat="47.36767" lon="5.02427">
        <ele>273</ele>
        <time>2021-11-10T14:54:32+01:00</time>
      </trkpt>
      <trkpt lat="47.36721" lon="5.02509">
        <ele>273</ele>
        <time>2021-11-10T14:54:37+01:00</time>
      </trkpt>
      <trkpt lat="47.36709" lon="5.02437">
        <ele>274</ele>
        <time>2021-11-10T14:54:42+01:00</time>
      </trkpt>
      <trkpt lat="47.36651" lon="5.02444">
        <ele>276</ele>
        <time>2021-11-10T14:54:47+01:00</time>
      </trkpt>
      <trkpt lat="47.36453" lon="5.02288">
        <ele>274</ele>
        <time>2021-11-10T14:54:52+01:00</time>
      </trkpt>
      <trkpt lat="47.36276" lon="5.02256">
        <ele>273</ele>
        <time>2021-11-10T14:54:57+01:00</time>
      </trkpt>
      <trkpt lat="47.35704" lon="5.02195">
        <ele>278</ele>
        <time>2021-11-10T14:55:02+01:00</time>
      </trkpt>
      <trkpt lat="47.3552" lon="5.02095">
        <ele>283</ele>
        <time>2021-11-10T14:55:07+01:00</time>
      </trkpt>
      <trkpt lat="47.35308" lon="5.02134">
        <ele>284</ele>
        <time>2021-11-10T14:55:12+01:00</time>
      </trkpt>
      <trkpt lat="47.3538" lon="5.0228">
        <ele>282</ele>
        <time>2021-11-10T14:55:17+01:00</time>
      </trkpt>
      <trkpt lat="47.35467" lon="5.02416">
        <ele>279</ele>
        <time>2021-11-10T14:55:22+01:00</time>
      </trkpt>
      <trkpt lat="47.35409" lon="5.02484">
        <ele>280</ele>
        <time>2021-11-10T14:55:27+01:00</time>
      </trkpt>
      <trkpt lat="47.35371" lon="5.02708">
        <ele>271</ele>
        <time>2021-11-10T14:55:32+01:00</time>
      </trkpt>
      <trkpt lat="47.35315" lon="5.03061">
        <ele>264</ele>
        <time>2021-11-10T14:55:37+01:00</time>
      </trkpt>
      <trkpt lat="47.35561" lon="5.03097">
        <ele>265</ele>
        <time>2021-11-10T14:55:42+01:00</time>
      </trkpt>
      <trkpt lat="47.35564" lon="5.03496">
        <ele>259</ele>
        <time>2021-11-10T14:55:47+01:00</time>
      </trkpt>
      <trkpt lat="47.35586" lon="5.03642">
        <ele>260</ele>
        <time>2021-11-10T14:55:52+01:00</time>
      </trkpt>
      <trkpt lat="47.35508" lon="5.0376">
        <ele>258</ele>
        <time>2021-11-10T14:55:57+01:00</time>
      </trkpt>
      <trkpt lat="47.35474" lon="5.03767">
        <ele>259</ele>
        <time>2021-11-10T14:56:02+01:00</time>
      </trkpt>
    </trkseg>
  </trk>
</gpx>